Time;durP1;ratioP1;P1;durP2;ratioP2;P2;SDS_P1;SDS_P2;PMS_P1;PMS_P2;Temp;Humidity;BMP_temperature;BMP_pressure;BME280_temperature;BME280_humidity;BME280_pressure;Samples;Min_cycle;Max_cycle;Signal;HPM_P1;HPM_P2
2021/06/14 00:01:33;;;;;;;10.30;6.87;;;14.30;1.00;;;;;;5047566;28;20464;-75
2021/06/14 00:04:00;;;;;;;9.53;8.60;;;14.30;1.00;;;;;;5045585;28;20442;-75
2021/06/14 00:06:27;;;;;;;11.40;8.73;;;14.30;1.00;;;;;;5051724;28;20459;-74
2021/06/14 00:08:54;;;;;;;12.53;8.77;;;14.30;1.00;;;;;;5048747;28;20428;-74
2021/06/14 00:11:20;;;;;;;13.67;10.03;;;14.20;1.00;;;;;;5047400;28;21454;-77
2021/06/14 00:13:47;;;;;;;11.03;9.10;;;14.20;1.00;;;;;;5049256;28;21108;-78
2021/06/14 00:16:16;;;;;;;11.73;8.70;;;14.10;1.00;;;;;;5052155;28;20448;-77
2021/06/14 00:18:42;;;;;;;11.50;8.83;;;14.10;1.00;;;;;;5053141;28;20428;-78
2021/06/14 00:21:11;;;;;;;11.47;8.53;;;14.10;1.00;;;;;;5048808;28;22826;-78
2021/06/14 00:23:39;;;;;;;12.33;8.77;;;14.10;1.00;;;;;;5052436;28;20575;-77
2021/06/14 00:26:09;;;;;;;10.70;8.10;;;14.10;1.00;;;;;;5029366;28;20464;-77
2021/06/14 00:28:36;;;;;;;11.20;8.50;;;14.10;1.00;;;;;;5052418;28;20543;-77
2021/06/14 00:31:03;;;;;;;9.63;8.50;;;14.10;1.00;;;;;;5045735;28;21263;-77
2021/06/14 00:33:31;;;;;;;10.50;9.00;;;14.00;1.00;;;;;;5046153;28;20444;-77
2021/06/14 00:35:58;;;;;;;10.17;8.30;;;14.00;1.00;;;;;;5045430;28;20463;-78
2021/06/14 00:38:25;;;;;;;11.73;8.63;;;13.90;1.00;;;;;;5044233;28;21538;-77
2021/06/14 00:40:52;;;;;;;11.07;8.10;;;13.90;1.00;;;;;;5046430;28;20460;-77
2021/06/14 00:43:19;;;;;;;10.83;8.33;;;13.90;1.00;;;;;;5044530;28;20397;-77
2021/06/14 00:45:52;;;;;;;16.97;8.73;;;13.80;1.00;;;;;;5044538;28;20861;-76
2021/06/14 00:48:20;;;;;;;10.33;8.30;;;13.70;1.00;;;;;;5042553;28;20970;-76
2021/06/14 00:50:51;;;;;;;12.50;7.77;;;13.70;1.00;;;;;;5046868;28;21393;-77
2021/06/14 00:53:19;;;;;;;13.03;8.97;;;13.70;1.00;;;;;;5042412;28;21054;-76
2021/06/14 00:55:46;;;;;;;10.40;9.23;;;13.60;1.00;;;;;;5045691;28;20463;-77
2021/06/14 00:58:14;;;;;;;12.97;9.57;;;13.60;1.00;;;;;;5033502;28;20456;-77
2021/06/14 01:00:41;;;;;;;10.70;8.90;;;13.60;1.00;;;;;;5028898;28;20471;-77
2021/06/14 01:03:08;;;;;;;11.93;9.80;;;13.60;1.00;;;;;;5045808;28;20515;-77
2021/06/14 01:05:37;;;;;;;14.70;10.33;;;13.60;1.00;;;;;;5044586;28;20455;-77
2021/06/14 01:08:07;;;;;;;12.13;10.03;;;13.60;1.00;;;;;;5028282;28;20586;-77
2021/06/14 01:10:34;;;;;;;13.90;10.27;;;13.60;1.00;;;;;;5042111;28;20452;-77
2021/06/14 01:13:11;;;;;;;10.80;9.60;;;13.60;1.00;;;;;;5043206;28;20471;-77
2021/06/14 01:15:49;;;;;;;12.07;10.50;;;13.60;1.00;;;;;;5046955;28;20478;-77
2021/06/14 01:18:19;;;;;;;11.27;10.13;;;13.60;1.00;;;;;;5048566;28;21213;-76
2021/06/14 01:20:52;;;;;;;11.70;9.80;;;13.50;1.00;;;;;;5047966;28;20476;-77
2021/06/14 01:23:54;;;;;;;12.80;9.87;;;13.50;1.00;;;;;;5033457;28;20479;-78
2021/06/14 01:26:23;;;;;;;15.63;9.97;;;13.40;1.00;;;;;;5047467;28;20463;-76
2021/06/14 01:28:53;;;;;;;16.23;12.67;;;13.30;1.00;;;;;;5045144;28;20482;-76
2021/06/14 01:31:24;;;;;;;14.17;12.87;;;13.30;1.00;;;;;;5023019;28;20436;-77
2021/06/14 01:33:51;;;;;;;16.10;13.23;;;13.30;1.00;;;;;;5042019;28;20435;-77
2021/06/14 01:36:23;;;;;;;13.47;12.20;;;13.20;1.00;;;;;;5044070;28;20590;-77
2021/06/14 01:38:51;;;;;;;15.07;12.43;;;13.20;1.00;;;;;;5043399;28;20435;-77
2021/06/14 01:41:19;;;;;;;15.50;12.57;;;13.30;1.00;;;;;;5048436;28;20591;-77
2021/06/14 01:43:47;;;;;;;13.00;11.53;;;13.20;1.00;;;;;;5043079;28;20471;-77
2021/06/14 01:46:19;;;;;;;15.90;11.70;;;13.20;1.00;;;;;;5045423;28;21010;-77
2021/06/14 01:48:47;;;;;;;12.70;11.40;;;13.20;1.00;;;;;;5043899;28;20455;-77
2021/06/14 01:51:17;;;;;;;13.23;10.80;;;13.20;1.00;;;;;;5042036;28;20468;-77
2021/06/14 01:54:02;;;;;;;12.17;10.97;;;13.30;1.00;;;;;;5027478;28;23211;-77
2021/06/14 01:56:30;;;;;;;11.53;9.90;;;13.30;1.00;;;;;;5042057;28;20491;-77
2021/06/14 01:59:00;;;;;;;13.03;10.00;;;13.20;1.00;;;;;;5044472;28;20447;-78
2021/06/14 02:01:30;;;;;;;14.10;10.70;;;13.10;1.00;;;;;;5047501;28;20454;-77
2021/06/14 02:03:57;;;;;;;16.30;11.17;;;13.10;1.00;;;;;;5044179;28;20468;-77
2021/06/14 02:06:26;;;;;;;17.57;10.47;;;13.10;1.00;;;;;;5044680;28;20471;-77
2021/06/14 02:08:53;;;;;;;13.83;11.00;;;13.10;1.00;;;;;;5045373;28;20456;-78
2021/06/14 02:11:20;;;;;;;14.30;10.67;;;13.00;1.00;;;;;;5043628;28;20443;-77
2021/06/14 02:13:47;;;;;;;16.33;11.50;;;13.00;1.00;;;;;;5045922;28;21014;-77
2021/06/14 02:16:16;;;;;;;15.53;11.10;;;13.00;1.00;;;;;;5048027;28;20581;-77
2021/06/14 02:18:44;;;;;;;11.27;10.03;;;13.00;1.00;;;;;;5048784;28;20465;-77
2021/06/14 02:21:10;;;;;;;15.10;10.67;;;12.90;1.00;;;;;;5045653;28;20451;-78
2021/06/14 02:23:37;;;;;;;16.20;12.13;;;12.90;1.00;;;;;;5044318;28;20456;-77
2021/06/14 02:26:04;;;;;;;15.33;10.50;;;12.80;1.00;;;;;;5045845;28;20473;-77
2021/06/14 02:28:30;;;;;;;13.30;11.90;;;12.90;1.00;;;;;;5042985;28;20457;-77
2021/06/14 02:30:59;;;;;;;17.90;12.80;;;12.90;1.00;;;;;;5041869;28;20466;-77
2021/06/14 02:33:25;;;;;;;15.00;11.23;;;12.80;1.00;;;;;;5046252;28;21378;-77
2021/06/14 02:35:54;;;;;;;14.27;11.00;;;12.90;1.00;;;;;;5042103;28;20481;-76
2021/06/14 02:38:21;;;;;;;12.70;11.37;;;12.90;1.00;;;;;;5046979;28;20834;-79
2021/06/14 02:40:48;;;;;;;15.23;12.03;;;12.80;1.00;;;;;;5045950;28;21165;-77
2021/06/14 02:43:14;;;;;;;17.70;11.73;;;12.80;1.00;;;;;;5048515;28;20455;-76
2021/06/14 02:45:41;;;;;;;12.80;11.40;;;12.80;1.00;;;;;;5046484;28;21002;-76
2021/06/14 02:48:09;;;;;;;14.50;12.33;;;12.80;1.00;;;;;;5049008;28;20880;-76
2021/06/14 02:50:37;;;;;;;13.90;12.17;;;12.80;1.00;;;;;;5051091;28;20441;-78
2021/06/14 02:53:10;;;;;;;15.50;13.10;;;12.80;1.00;;;;;;5046888;28;20454;-77
2021/06/14 02:55:44;;;;;;;14.93;13.33;;;12.80;1.00;;;;;;5047223;28;20479;-77
2021/06/14 02:58:11;;;;;;;18.87;14.00;;;12.80;1.00;;;;;;5025089;28;20444;-77
2021/06/14 03:00:38;;;;;;;18.83;15.13;;;12.80;1.00;;;;;;5049801;28;20494;-77
2021/06/14 03:03:08;;;;;;;16.17;13.07;;;12.80;1.00;;;;;;5047438;28;20459;-77
2021/06/14 03:05:36;;;;;;;17.67;14.80;;;12.80;1.00;;;;;;5048967;28;20529;-77
2021/06/14 03:08:03;;;;;;;20.43;16.10;;;12.70;1.00;;;;;;5051429;28;20441;-77
2021/06/14 03:10:33;;;;;;;19.33;14.13;;;12.80;1.00;;;;;;5050258;28;20533;-77
2021/06/14 03:13:03;;;;;;;17.63;14.37;;;12.80;1.00;;;;;;5047812;28;20470;-77
2021/06/14 03:15:32;;;;;;;21.17;17.70;;;12.80;1.00;;;;;;5049747;28;20481;-78
2021/06/14 03:18:00;;;;;;;15.50;14.07;;;12.70;1.00;;;;;;5053961;28;20472;-78
2021/06/14 03:20:28;;;;;;;14.23;12.50;;;12.70;1.00;;;;;;5053130;28;21054;-78
2021/06/14 03:22:55;;;;;;;21.80;14.83;;;12.70;1.00;;;;;;5056350;28;20990;-78
2021/06/14 03:25:22;;;;;;;18.30;13.03;;;12.70;1.00;;;;;;5052463;28;20455;-77
2021/06/14 03:27:51;;;;;;;15.90;12.47;;;12.70;1.00;;;;;;5053896;28;20415;-79
2021/06/14 03:30:22;;;;;;;22.17;15.40;;;12.80;1.00;;;;;;5056497;28;20446;-79
2021/06/14 03:32:49;;;;;;;17.80;13.07;;;12.80;1.00;;;;;;5053383;28;20585;-79
2021/06/14 03:35:19;;;;;;;16.57;13.27;;;12.90;1.00;;;;;;5054384;28;20478;-79
2021/06/14 03:37:47;;;;;;;17.83;14.43;;;12.80;1.00;;;;;;5056184;28;20539;-80
2021/06/14 03:40:17;;;;;;;19.20;14.17;;;12.80;1.00;;;;;;5061141;28;20458;-79
2021/06/14 03:42:45;;;;;;;18.13;14.40;;;12.90;1.00;;;;;;5057381;28;20488;-80
2021/06/14 03:45:14;;;;;;;15.30;13.23;;;12.90;1.00;;;;;;5060164;28;20427;-79
2021/06/14 03:47:42;;;;;;;16.77;13.57;;;13.00;1.00;;;;;;5061422;28;20443;-79
2021/06/14 03:50:11;;;;;;;19.00;14.50;;;13.00;1.00;;;;;;5063192;28;20883;-80
2021/06/14 03:52:40;;;;;;;17.73;13.30;;;13.00;1.00;;;;;;5066510;28;20515;-79
2021/06/14 03:55:08;;;;;;;18.30;13.97;;;13.00;1.00;;;;;;5067262;28;21767;-76
2021/06/14 03:57:37;;;;;;;17.93;13.80;;;13.00;1.00;;;;;;5055103;28;20465;-77
2021/06/14 04:00:07;;;;;;;20.63;14.67;;;13.10;1.00;;;;;;5057880;28;20585;-76
2021/06/14 04:02:35;;;;;;;22.43;15.00;;;13.10;1.00;;;;;;5074185;28;20415;-77
2021/06/14 04:05:02;;;;;;;15.77;14.10;;;13.10;1.00;;;;;;5068278;28;21375;-79
2021/06/14 04:07:28;;;;;;;25.40;17.13;;;13.20;1.00;;;;;;5061166;28;20448;-78
2021/06/14 04:09:59;;;;;;;19.00;14.73;;;13.20;1.00;;;;;;5059181;28;21186;-78
2021/06/14 04:12:26;;;;;;;16.00;14.10;;;13.30;1.00;;;;;;5054913;28;21346;-78
2021/06/14 04:14:52;;;;;;;17.97;14.87;;;13.40;1.00;;;;;;5046808;28;20601;-79
2021/06/14 04:17:19;;;;;;;22.27;14.97;;;13.40;1.00;;;;;;5048807;28;20486;-78
2021/06/14 04:19:47;;;;;;;17.50;13.67;;;13.40;1.00;;;;;;5057707;28;20566;-80
2021/06/14 04:22:14;;;;;;;15.73;13.83;;;13.50;1.00;;;;;;5055936;28;20437;-76
2021/06/14 04:24:41;;;;;;;13.80;11.63;;;13.60;1.00;;;;;;5045105;28;20459;-76
2021/06/14 04:27:09;;;;;;;18.40;13.50;;;13.80;1.00;;;;;;5043023;28;20563;-76
2021/06/14 04:29:37;;;;;;;21.87;15.47;;;13.80;1.00;;;;;;5052630;28;20472;-76
2021/06/14 04:32:05;;;;;;;17.67;14.23;;;13.80;1.00;;;;;;5059709;28;20416;-77
2021/06/14 04:34:32;;;;;;;16.73;13.33;;;13.90;1.00;;;;;;5061531;28;20475;-78
2021/06/14 04:37:00;;;;;;;17.37;13.37;;;14.00;1.00;;;;;;5059388;22;21525;-75
2021/06/14 04:39:26;;;;;;;17.47;13.40;;;14.00;1.00;;;;;;5033535;28;20472;-75
2021/06/14 04:41:53;;;;;;;18.47;14.60;;;14.10;1.00;;;;;;5048694;28;20463;-76
2021/06/14 04:44:20;;;;;;;15.23;13.73;;;14.20;1.00;;;;;;5050138;28;20470;-76
2021/06/14 04:46:46;;;;;;;16.97;13.00;;;14.20;1.00;;;;;;5046109;28;20443;-77
2021/06/14 04:49:13;;;;;;;15.83;12.60;;;14.30;1.00;;;;;;5046276;28;20434;-76
2021/06/14 04:51:39;;;;;;;13.60;11.20;;;14.30;1.00;;;;;;5047994;28;20475;-77
2021/06/14 04:54:07;;;;;;;18.13;13.87;;;14.30;1.00;;;;;;5045473;28;20444;-77
2021/06/14 04:56:34;;;;;;;15.70;13.30;;;14.30;1.00;;;;;;5046454;28;20531;-76
2021/06/14 04:59:01;;;;;;;13.70;12.23;;;14.40;1.00;;;;;;5047286;28;20451;-76
2021/06/14 05:01:27;;;;;;;16.83;13.30;;;14.50;1.00;;;;;;5041850;28;20440;-75
2021/06/14 05:03:55;;;;;;;18.70;13.53;;;14.60;1.00;;;;;;5049711;28;20448;-76
2021/06/14 05:06:22;;;;;;;16.43;12.53;;;14.60;1.00;;;;;;5044751;28;20466;-77
2021/06/14 05:08:49;;;;;;;15.23;13.63;;;14.70;1.00;;;;;;5047507;28;20455;-77
2021/06/14 05:11:17;;;;;;;16.57;11.50;;;14.80;1.00;;;;;;5044612;28;20518;-76
2021/06/14 05:13:43;;;;;;;19.57;12.23;;;14.90;1.00;;;;;;5049242;28;20463;-76
2021/06/14 05:16:10;;;;;;;13.77;12.30;;;15.00;1.00;;;;;;5050008;28;20597;-76
2021/06/14 05:18:37;;;;;;;12.67;11.37;;;15.10;1.00;;;;;;5048924;28;20475;-77
2021/06/14 05:21:04;;;;;;;17.40;13.67;;;15.30;1.00;;;;;;5034559;28;20456;-76
2021/06/14 05:23:30;;;;;;;12.10;8.53;;;15.40;1.00;;;;;;5049507;28;20547;-76
2021/06/14 05:25:58;;;;;;;11.77;8.77;;;15.50;1.00;;;;;;5051783;28;20915;-76
2021/06/14 05:28:26;;;;;;;13.83;8.33;;;15.60;1.00;;;;;;5047310;28;21588;-77
2021/06/14 05:30:52;;;;;;;12.77;9.33;;;15.70;1.00;;;;;;5056523;28;20412;-75
2021/06/14 05:33:19;;;;;;;14.23;8.53;;;15.80;1.00;;;;;;5057973;28;21374;-79
2021/06/14 05:35:46;;;;;;;11.73;9.90;;;16.00;1.00;;;;;;5048559;28;20483;-78
2021/06/14 05:38:12;;;;;;;12.47;9.47;;;16.00;1.00;;;;;;5030731;28;20555;-78
2021/06/14 05:40:39;;;;;;;11.47;8.33;;;16.20;1.00;;;;;;5053610;28;20440;-80
2021/06/14 05:43:06;;;;;;;16.50;9.20;;;16.30;1.00;;;;;;5055358;28;20490;-80
2021/06/14 05:45:34;;;;;;;11.50;7.77;;;16.40;1.00;;;;;;5058584;28;20476;-82
2021/06/14 05:48:01;;;;;;;11.03;8.30;;;16.50;1.00;;;;;;5054488;28;20535;-80
2021/06/14 05:50:27;;;;;;;9.63;6.87;;;16.60;1.00;;;;;;5056045;28;20456;-82
2021/06/14 05:52:54;;;;;;;14.27;8.53;;;16.70;1.00;;;;;;5056998;28;20436;-81
2021/06/14 05:55:22;;;;;;;13.17;8.13;;;16.80;1.00;;;;;;5032067;28;20441;-80
2021/06/14 05:57:49;;;;;;;14.33;7.80;;;16.90;1.00;;;;;;5025758;28;21272;-80
2021/06/14 06:00:16;;;;;;;14.33;6.90;;;17.10;1.00;;;;;;5048589;28;20461;-81
2021/06/14 06:02:44;;;;;;;10.50;6.30;;;17.10;1.00;;;;;;5048100;28;20436;-80
2021/06/14 06:05:12;;;;;;;8.20;5.30;;;17.20;1.00;;;;;;5048718;28;20458;-79
2021/06/14 06:07:39;;;;;;;8.93;6.57;;;17.20;1.00;;;;;;5057598;28;20441;-80
2021/06/14 06:10:09;;;;;;;6.70;5.23;;;17.30;1.00;;;;;;5058720;28;20957;-79
2021/06/14 06:12:36;;;;;;;8.60;5.80;;;17.30;1.00;;;;;;5064226;28;20445;-80
2021/06/14 06:15:04;;;;;;;8.90;6.30;;;17.40;1.00;;;;;;5064796;28;20426;-80
2021/06/14 06:17:30;;;;;;;9.33;6.07;;;17.40;1.00;;;;;;5036045;28;21553;-80
2021/06/14 06:19:59;;;;;;;10.97;6.00;;;17.50;1.00;;;;;;5050141;28;20417;-79
2021/06/14 06:22:26;;;;;;;10.43;5.80;;;17.60;1.00;;;;;;5054277;28;20460;-78
2021/06/14 06:24:53;;;;;;;9.83;5.90;;;17.80;1.00;;;;;;5060653;28;20521;-79
2021/06/14 06:27:20;;;;;;;7.93;5.93;;;17.80;1.00;;;;;;5052614;28;20585;-79
2021/06/14 06:29:47;;;;;;;8.17;5.33;;;17.90;1.00;;;;;;5053262;28;20453;-78
2021/06/14 06:32:13;;;;;;;9.53;5.57;;;18.00;1.00;;;;;;5048506;28;20706;-78
2021/06/14 06:34:42;;;;;;;8.77;5.67;;;18.10;1.00;;;;;;5047332;28;20464;-79
2021/06/14 06:37:10;;;;;;;7.00;5.30;;;18.10;1.00;;;;;;5046512;28;21380;-78
2021/06/14 06:39:36;;;;;;;8.93;6.60;;;18.10;1.00;;;;;;5048967;28;20526;-79
2021/06/14 06:42:03;;;;;;;9.90;5.30;;;18.20;1.00;;;;;;5053747;28;21939;-79
2021/06/14 06:44:30;;;;;;;7.40;5.40;;;18.20;1.00;;;;;;5053152;28;20663;-81
2021/06/14 06:46:57;;;;;;;7.70;5.83;;;18.10;1.00;;;;;;5072851;28;20438;-79
2021/06/14 06:49:24;;;;;;;8.23;5.37;;;18.20;1.00;;;;;;5069779;28;20963;-80
2021/06/14 06:51:50;;;;;;;7.93;6.00;;;18.20;1.00;;;;;;5068938;28;21112;-80
2021/06/14 06:54:18;;;;;;;13.23;7.77;;;18.30;1.00;;;;;;5073329;28;20445;-80
2021/06/14 06:56:46;;;;;;;8.97;5.70;;;18.50;1.00;;;;;;5050775;28;20485;-81
2021/06/14 06:59:13;;;;;;;7.60;5.97;;;18.50;1.00;;;;;;5081911;28;20474;-81
2021/06/14 07:01:40;;;;;;;9.83;5.80;;;18.60;1.00;;;;;;5051871;28;20464;-79
2021/06/14 07:04:08;;;;;;;9.37;5.60;;;18.60;1.00;;;;;;5062706;28;20635;-80
2021/06/14 07:06:35;;;;;;;10.10;5.93;;;18.70;1.00;;;;;;5058628;28;20461;-81
2021/06/14 07:09:03;;;;;;;8.80;6.27;;;18.80;1.00;;;;;;5054333;28;20447;-82
2021/06/14 07:11:31;;;;;;;7.37;5.90;;;18.80;1.00;;;;;;5059216;28;21771;-81
2021/06/14 07:13:59;;;;;;;7.90;5.40;;;18.90;1.00;;;;;;5050038;28;20451;-79
2021/06/14 07:16:26;;;;;;;10.30;6.07;;;19.00;1.00;;;;;;5053050;28;20446;-78
2021/06/14 07:18:53;;;;;;;9.67;5.50;;;19.00;1.00;;;;;;5054622;28;20451;-76
2021/06/14 07:21:21;;;;;;;9.77;6.13;;;19.00;1.00;;;;;;5051386;28;20420;-76
2021/06/14 07:23:48;;;;;;;13.20;7.07;;;19.00;1.00;;;;;;5037108;28;20414;-78
2021/06/14 07:26:15;;;;;;;8.50;5.53;;;19.10;1.00;;;;;;5062182;28;20462;-77
2021/06/14 07:28:43;;;;;;;7.87;5.37;;;19.20;1.00;;;;;;5065215;28;20430;-78
2021/06/14 07:31:10;;;;;;;9.80;5.90;;;19.20;1.00;;;;;;5061317;28;20466;-78
2021/06/14 07:33:39;;;;;;;7.77;5.30;;;19.20;1.00;;;;;;5057794;28;20487;-78
2021/06/14 07:36:08;;;;;;;7.00;5.27;;;19.30;1.00;;;;;;5052032;28;20486;-79
2021/06/14 07:38:35;;;;;;;11.13;6.07;;;19.40;1.00;;;;;;5072730;28;20452;-78
2021/06/14 07:41:03;;;;;;;9.87;5.60;;;19.50;1.00;;;;;;5065470;28;20455;-77
2021/06/14 07:43:30;;;;;;;9.80;6.17;;;19.60;1.00;;;;;;5070836;28;20510;-77
2021/06/14 07:46:00;;;;;;;7.90;5.50;;;19.70;1.00;;;;;;5056029;28;20651;-78
2021/06/14 07:48:27;;;;;;;9.40;5.10;;;19.80;1.00;;;;;;5072637;28;20452;-77
2021/06/14 07:50:55;;;;;;;5.63;4.97;;;19.80;1.00;;;;;;5057513;28;20458;-77
2021/06/14 07:53:22;;;;;;;6.60;5.60;;;19.90;1.00;;;;;;5054734;28;20418;-77
2021/06/14 07:55:51;;;;;;;8.10;5.50;;;20.00;1.00;;;;;;5057204;28;20421;-77
2021/06/14 07:58:18;;;;;;;8.60;5.70;;;20.10;1.00;;;;;;5051931;28;20474;-77
2021/06/14 08:00:45;;;;;;;11.10;5.03;;;20.20;1.00;;;;;;5050148;28;20479;-76
2021/06/14 08:03:13;;;;;;;7.33;5.47;;;20.20;1.00;;;;;;5047669;28;20446;-77
2021/06/14 08:05:40;;;;;;;6.93;4.80;;;20.30;1.00;;;;;;5058139;28;20470;-76
2021/06/14 08:08:07;;;;;;;6.87;5.00;;;20.40;1.00;;;;;;5064692;28;20461;-77
2021/06/14 08:10:34;;;;;;;8.00;4.57;;;20.50;1.00;;;;;;5064065;28;20442;-77
2021/06/14 08:13:02;;;;;;;11.97;5.70;;;20.60;1.00;;;;;;5052042;28;20435;-77
2021/06/14 08:15:30;;;;;;;6.70;4.63;;;20.80;1.00;;;;;;5050923;28;20455;-77
2021/06/14 08:18:05;;;;;;;9.13;4.90;;;20.90;1.00;;;;;;5045193;28;20447;-76
2021/06/14 08:20:36;;;;;;;7.03;5.17;;;21.00;1.00;;;;;;5045691;28;20459;-77
2021/06/14 08:25:48;;;;;;;7.47;4.97;;;21.20;1.00;;;;;;5048207;28;20960;-74
2021/06/14 08:28:15;;;;;;;4.93;4.53;;;21.30;1.00;;;;;;5047682;28;20555;-77
2021/06/14 08:30:41;;;;;;;9.30;5.43;;;21.50;1.00;;;;;;5039412;28;20452;-76
2021/06/14 08:33:08;;;;;;;10.23;5.60;;;21.60;1.00;;;;;;5045884;28;20572;-78
2021/06/14 08:35:36;;;;;;;9.37;5.60;;;21.60;1.00;;;;;;5049137;28;20507;-78
2021/06/14 08:38:03;;;;;;;7.10;5.90;;;21.70;1.00;;;;;;5052811;28;20831;-76
2021/06/14 08:40:33;;;;;;;6.50;5.10;;;21.80;1.00;;;;;;5048558;28;20441;-77
2021/06/14 08:43:03;;;;;;;6.30;4.70;;;21.90;1.00;;;;;;5047327;28;20453;-77
2021/06/14 08:45:31;;;;;;;9.57;6.10;;;21.90;1.00;;;;;;5052359;28;20746;-78
2021/06/14 08:47:59;;;;;;;7.50;4.13;;;22.00;1.00;;;;;;5048827;28;21667;-79
2021/06/14 08:50:26;;;;;;;8.17;5.47;;;22.00;1.00;;;;;;5046283;28;20455;-76
2021/06/14 08:52:54;;;;;;;6.13;4.93;;;21.90;1.00;;;;;;5044882;28;20454;-78
2021/06/14 08:55:22;;;;;;;8.77;4.80;;;21.90;1.00;;;;;;5052777;28;20444;-77
2021/06/14 08:57:50;;;;;;;7.50;5.00;;;22.00;1.00;;;;;;5056921;28;20463;-78
2021/06/14 09:00:20;;;;;;;6.63;5.13;;;22.10;1.00;;;;;;5048897;28;20456;-78
2021/06/14 09:02:47;;;;;;;7.00;5.17;;;22.20;1.00;;;;;;5047332;28;21119;-78
2021/06/14 09:05:16;;;;;;;9.23;4.87;;;22.30;1.00;;;;;;5044902;28;20471;-78
2021/06/14 09:07:43;;;;;;;6.13;4.80;;;22.40;1.00;;;;;;5049025;28;20474;-78
2021/06/14 09:10:25;;;;;;;6.20;4.50;;;22.50;1.00;;;;;;5049481;28;20487;-78
2021/06/14 09:12:53;;;;;;;8.13;4.90;;;22.60;1.00;;;;;;5049628;28;20452;-78
2021/06/14 09:15:25;;;;;;;5.67;4.30;;;22.80;1.00;;;;;;5025385;28;20456;-79
2021/06/14 09:17:55;;;;;;;11.73;5.20;;;22.90;1.00;;;;;;5047739;28;20473;-79
2021/06/14 09:20:24;;;;;;;11.90;5.90;;;23.00;1.00;;;;;;5048026;28;20430;-78
2021/06/14 09:22:51;;;;;;;6.83;4.90;;;23.10;1.00;;;;;;5050647;28;22931;-78
2021/06/14 09:25:18;;;;;;;7.60;5.43;;;23.30;1.00;;;;;;5051312;28;21273;-78
2021/06/14 09:27:48;;;;;;;5.97;4.63;;;23.20;1.00;;;;;;5048468;28;20453;-77
2021/06/14 09:30:18;;;;;;;6.53;4.43;;;23.30;1.00;;;;;;5048865;28;20545;-78
2021/06/14 09:32:56;;;;;;;7.20;4.70;;;23.30;1.00;;;;;;5048613;28;20911;-77
2021/06/14 09:35:24;;;;;;;9.07;4.90;;;23.30;1.00;;;;;;5046934;28;20464;-77
2021/06/14 09:38:02;;;;;;;6.00;4.63;;;23.50;1.00;;;;;;5044727;28;20462;-76
2021/06/14 09:40:31;;;;;;;5.30;4.17;;;24.00;1.00;;;;;;5049774;28;20444;-77
2021/06/14 09:43:01;;;;;;;5.70;4.40;;;25.10;1.00;;;;;;5046631;28;20505;-79
2021/06/14 09:45:28;;;;;;;5.93;4.50;;;26.40;1.00;;;;;;5044754;28;20459;-78
2021/06/14 09:47:55;;;;;;;7.00;4.80;;;27.30;1.00;;;;;;5045056;28;20830;-77
2021/06/14 09:50:28;;;;;;;4.67;4.10;;;28.40;1.00;;;;;;5047355;28;20446;-77
2021/06/14 09:53:11;;;;;;;5.90;3.73;;;29.40;1.00;;;;;;5049440;28;20421;-77
2021/06/14 09:55:39;;;;;;;5.30;4.20;;;30.50;1.00;;;;;;5045324;28;21244;-78
2021/06/14 09:58:16;;;;;;;5.03;3.87;;;31.40;1.00;;;;;;5045160;28;23520;-78
2021/06/14 10:00:52;;;;;;;8.80;4.53;;;32.10;1.00;;;;;;5045519;28;20468;-78
2021/06/14 10:03:23;;;;;;;5.47;3.67;;;32.50;1.00;;;;;;5045471;28;20472;-78
2021/06/14 10:05:51;;;;;;;5.53;4.40;;;32.60;1.00;;;;;;5049805;28;20588;-78
2021/06/14 10:08:29;;;;;;;6.17;3.93;;;32.70;1.00;;;;;;5047951;28;20466;-79
2021/06/14 10:11:04;;;;;;;4.97;4.47;;;32.70;1.00;;;;;;5054093;28;20463;-77
2021/06/14 10:13:33;;;;;;;8.27;4.00;;;32.80;1.00;;;;;;5062066;28;20438;-78
2021/06/14 10:16:01;;;;;;;5.70;4.67;;;32.90;1.00;;;;;;5058931;28;20415;-79
2021/06/14 10:18:34;;;;;;;7.07;4.50;;;32.00;1.00;;;;;;5063991;28;22097;-79
2021/06/14 10:21:01;;;;;;;6.40;4.37;;;32.20;1.00;;;;;;5042466;28;20424;-79
2021/06/14 10:23:28;;;;;;;5.67;4.27;;;33.30;1.00;;;;;;5059921;28;20450;-78
2021/06/14 10:25:57;;;;;;;6.00;4.20;;;33.90;1.00;;;;;;5061513;28;20461;-77
2021/06/14 10:28:24;;;;;;;6.13;4.80;;;33.70;1.00;;;;;;5056628;28;20473;-78
2021/06/14 10:30:53;;;;;;;6.20;4.10;;;33.90;1.00;;;;;;5067530;28;20423;-78
2021/06/14 10:33:23;;;;;;;6.60;4.03;;;34.00;1.00;;;;;;5071884;28;20403;-79
2021/06/14 10:35:52;;;;;;;8.83;5.23;;;34.10;1.00;;;;;;5065301;28;20741;-77
2021/06/14 10:38:19;;;;;;;5.30;3.70;;;34.60;1.00;;;;;;5062861;28;20469;-76
2021/06/14 10:40:46;;;;;;;5.37;3.90;;;35.00;1.00;;;;;;5062001;28;21073;-78
2021/06/14 10:43:13;;;;;;;4.60;4.20;;;35.10;1.00;;;;;;5054773;28;20447;-79
2021/06/14 10:45:40;;;;;;;5.83;4.10;;;34.50;1.00;;;;;;5053973;28;20412;-77
2021/06/14 10:48:11;;;;;;;8.27;4.13;;;35.10;1.00;;;;;;5052030;28;20936;-78
2021/06/14 10:50:38;;;;;;;8.90;4.40;;;35.80;1.00;;;;;;5047258;28;20579;-78
2021/06/14 10:53:06;;;;;;;4.67;3.70;;;35.90;1.00;;;;;;5051875;28;20510;-78
2021/06/14 10:55:36;;;;;;;6.77;4.20;;;35.50;1.00;;;;;;5049785;28;20534;-79
2021/06/14 10:58:14;;;;;;;7.43;4.07;;;35.70;1.00;;;;;;5049417;28;20506;-79
2021/06/14 11:00:40;;;;;;;6.67;4.93;;;36.00;1.00;;;;;;5053684;28;20439;-78
2021/06/14 11:03:09;;;;;;;6.33;4.70;;;36.20;1.00;;;;;;5055022;28;20841;-77
2021/06/14 11:05:41;;;;;;;9.43;5.50;;;36.60;1.00;;;;;;5103224;22;20420;-74
2021/06/14 11:08:17;;;;;;;6.07;3.97;;;36.50;1.00;;;;;;5078390;28;20819;-75
2021/06/14 11:10:45;;;;;;;6.00;4.17;;;36.80;1.00;;;;;;5078936;28;20482;-75
2021/06/14 11:13:13;;;;;;;5.10;3.80;;;36.70;1.00;;;;;;5076674;28;20434;-77
2021/06/14 11:15:42;;;;;;;4.17;3.77;;;36.70;1.00;;;;;;5070229;28;20471;-75
2021/06/14 11:18:22;;;;;;;4.07;3.67;;;37.20;1.00;;;;;;5049832;28;20451;-76
2021/06/14 11:20:51;;;;;;;5.37;4.10;;;36.70;1.00;;;;;;5056513;28;20998;-78
2021/06/14 11:23:23;;;;;;;4.27;3.87;;;35.90;1.00;;;;;;5056581;28;20507;-76
2021/06/14 11:25:51;;;;;;;5.23;4.30;;;36.50;1.00;;;;;;5052829;28;20481;-75
2021/06/14 11:28:32;;;;;;;4.33;3.87;;;37.10;1.00;;;;;;5049359;28;20444;-76
2021/06/14 11:30:59;;;;;;;3.40;3.10;;;38.10;1.00;;;;;;5050234;28;20523;-75
2021/06/14 11:33:30;;;;;;;7.70;3.47;;;38.50;1.00;;;;;;5050507;28;20978;-75
2021/06/14 11:35:58;;;;;;;3.50;2.97;;;38.70;1.00;;;;;;5052627;28;21580;-73
2021/06/14 11:38:26;;;;;;;5.67;3.50;;;39.10;1.00;;;;;;5051457;28;20872;-75
2021/06/14 11:40:55;;;;;;;4.03;3.63;;;39.10;1.00;;;;;;5057407;28;20461;-78
2021/06/14 11:43:22;;;;;;;3.83;2.80;;;39.10;1.00;;;;;;5053893;28;20426;-81
2021/06/14 11:45:50;;;;;;;7.30;3.57;;;38.90;1.00;;;;;;5058892;28;20570;-77
2021/06/14 11:48:23;;;;;;;6.27;4.03;;;38.50;1.00;;;;;;5054620;28;20504;-78
2021/06/14 11:51:02;;;;;;;9.07;3.70;;;38.70;1.00;;;;;;5043108;28;20483;-78
2021/06/14 11:53:29;;;;;;;4.30;3.43;;;39.00;1.00;;;;;;5037131;28;20519;-78
2021/06/14 11:55:56;;;;;;;4.17;2.90;;;39.40;1.00;;;;;;5058179;28;20542;-79
2021/06/14 11:58:24;;;;;;;5.27;4.67;;;39.70;1.00;;;;;;5059025;28;20463;-77
2021/06/14 12:00:50;;;;;;;4.23;2.40;;;39.90;1.00;;;;;;5066172;28;21024;-78
2021/06/14 12:03:20;;;;;;;5.83;5.13;;;39.90;1.00;;;;;;5049186;28;20443;-79
2021/06/14 12:05:47;;;;;;;3.67;3.37;;;39.80;1.00;;;;;;5057955;28;20462;-78
2021/06/14 12:08:20;;;;;;;9.47;4.87;;;39.80;1.00;;;;;;5062991;28;20424;-77
2021/06/14 12:10:48;;;;;;;5.30;2.80;;;40.20;1.00;;;;;;5060997;28;21096;-79
2021/06/14 12:13:18;;;;;;;6.17;3.97;;;40.30;1.00;;;;;;5061862;28;20475;-78
2021/06/14 12:15:47;;;;;;;3.93;2.40;;;40.30;1.00;;;;;;5061746;28;20483;-77
2021/06/14 12:18:15;;;;;;;4.07;3.20;;;40.40;1.00;;;;;;5066463;28;20553;-79
2021/06/14 12:20:43;;;;;;;5.57;3.80;;;40.70;1.00;;;;;;5043015;28;20444;-80
2021/06/14 12:23:12;;;;;;;4.77;3.10;;;41.00;1.00;;;;;;5059848;28;20478;-78
2021/06/14 12:25:42;;;;;;;4.93;3.50;;;41.00;1.00;;;;;;5062975;28;20491;-77
2021/06/14 12:28:10;;;;;;;3.63;2.97;;;41.00;1.00;;;;;;5058166;28;21419;-77
2021/06/14 12:30:37;;;;;;;15.73;8.47;;;41.10;1.00;;;;;;5062989;28;20459;-77
2021/06/14 12:33:05;;;;;;;3.90;3.40;;;41.00;1.00;;;;;;5059396;28;20448;-77
2021/06/14 12:35:31;;;;;;;5.20;3.33;;;40.70;1.00;;;;;;5046939;28;20511;-79
2021/06/14 12:38:08;;;;;;;4.07;3.67;;;40.70;1.00;;;;;;5068946;28;20392;-76
2021/06/14 12:40:36;;;;;;;4.47;3.00;;;41.00;1.00;;;;;;5062117;28;20431;-77
2021/06/14 12:43:06;;;;;;;4.90;3.10;;;40.90;1.00;;;;;;5065917;28;21776;-79
2021/06/14 12:45:34;;;;;;;4.40;2.70;;;40.50;1.00;;;;;;5064469;28;20455;-77
2021/06/14 12:48:04;;;;;;;3.60;3.30;;;40.70;1.00;;;;;;5061990;28;20441;-79
2021/06/14 12:50:35;;;;;;;3.23;2.93;;;41.00;1.00;;;;;;5061700;28;20423;-78
2021/06/14 12:53:03;;;;;;;3.70;2.63;;;41.10;1.00;;;;;;5059851;28;20512;-77
2021/06/14 12:55:32;;;;;;;6.90;3.07;;;41.00;1.00;;;;;;5066400;28;22017;-77
2021/06/14 12:58:03;;;;;;;4.50;3.00;;;41.00;1.00;;;;;;5064810;28;20567;-78